Barr, Mississippi
Current Conditions -  °F | °C
As of 7:55 AM on Saturday 22 Nov 2014 (Local Time) from KUOX Reporting Station
Few Clouds Few Clouds  
Wind Chill: 50°   Ceiling: Unl
Heat Index: 50°   Visibility: 9mi
Dew Point: 41°   Wind: 10mph
Humidity: 71%   Direction: 140°SE
Pressure: 30.29"   Gusts: NA
Location:  34.6336°N, 89.8203°W
Report Text: KUOX 221355Z AUTO 14009KT 9SM FEW100 10/05 A3029 RMK AO2 PWINO PNO
Loading
Personal Weather Stations






























Interactive Weather Map New forecast layout! Learn more

10-Day Weather Forecast

Advertisements
Track Severe Weather on mobile